sensor_id;sensor_type;location;lat;lon;timestamp;temperature;humidity
26503;DHT22;14177;51.520;6.764;2022-07-23T00:00:25;18.50;90.80
26503;DHT22;14177;51.520;6.764;2022-07-23T00:02:53;18.50;91.00
26503;DHT22;14177;51.520;6.764;2022-07-23T00:05:21;18.50;91.10
26503;DHT22;14177;51.520;6.764;2022-07-23T00:07:49;18.50;91.10
26503;DHT22;14177;51.520;6.764;2022-07-23T00:10:16;18.40;91.00
26503;DHT22;14177;51.520;6.764;2022-07-23T00:12:44;18.40;91.10
26503;DHT22;14177;51.520;6.764;2022-07-23T00:15:18;18.30;91.20
26503;DHT22;14177;51.520;6.764;2022-07-23T00:17:46;18.30;91.10
26503;DHT22;14177;51.520;6.764;2022-07-23T00:20:13;18.30;91.00
26503;DHT22;14177;51.520;6.764;2022-07-23T00:22:51;18.20;91.00
26503;DHT22;14177;51.520;6.764;2022-07-23T00:25:22;18.20;90.80
26503;DHT22;14177;51.520;6.764;2022-07-23T00:27:58;18.20;91.00
26503;DHT22;14177;51.520;6.764;2022-07-23T00:30:26;18.10;91.00
26503;DHT22;14177;51.520;6.764;2022-07-23T00:33:02;18.10;91.20
26503;DHT22;14177;51.520;6.764;2022-07-23T00:35:36;18.10;91.20
26503;DHT22;14177;51.520;6.764;2022-07-23T00:38:10;18.10;91.20
26503;DHT22;14177;51.520;6.764;2022-07-23T00:40:41;18.10;91.20
26503;DHT22;14177;51.520;6.764;2022-07-23T00:43:09;18.10;91.30
26503;DHT22;14177;51.520;6.764;2022-07-23T00:45:36;18.10;91.30
26503;DHT22;14177;51.520;6.764;2022-07-23T00:48:05;18.00;91.30
26503;DHT22;14177;51.520;6.764;2022-07-23T00:50:34;18.00;91.30
26503;DHT22;14177;51.520;6.764;2022-07-23T00:53:05;18.00;91.30
26503;DHT22;14177;51.520;6.764;2022-07-23T00:55:36;17.90;91.30
26503;DHT22;14177;51.520;6.764;2022-07-23T00:58:05;17.90;91.40
26503;DHT22;14177;51.520;6.764;2022-07-23T01:00:33;17.90;91.40
26503;DHT22;14177;51.520;6.764;2022-07-23T01:03:03;17.80;91.40
26503;DHT22;14177;51.520;6.764;2022-07-23T01:05:30;17.80;91.50
26503;DHT22;14177;51.520;6.764;2022-07-23T01:08:01;17.80;91.50
26503;DHT22;14177;51.520;6.764;2022-07-23T01:10:29;17.70;91.50
26503;DHT22;14177;51.520;6.764;2022-07-23T01:13:07;17.70;91.60
26503;DHT22;14177;51.520;6.764;2022-07-23T01:15:38;17.70;91.60
26503;DHT22;14177;51.520;6.764;2022-07-23T01:18:07;17.70;91.80
26503;DHT22;14177;51.520;6.764;2022-07-23T01:20:43;17.70;91.70
26503;DHT22;14177;51.520;6.764;2022-07-23T01:23:11;17.60;91.80
26503;DHT22;14177;51.520;6.764;2022-07-23T01:25:49;17.60;91.70
26503;DHT22;14177;51.520;6.764;2022-07-23T01:28:20;17.70;91.70
26503;DHT22;14177;51.520;6.764;2022-07-23T01:30:49;17.70;91.80
26503;DHT22;14177;51.520;6.764;2022-07-23T01:33:17;17.70;91.80
26503;DHT22;14177;51.520;6.764;2022-07-23T01:35:44;17.70;91.80
26503;DHT22;14177;51.520;6.764;2022-07-23T01:38:17;17.60;91.80
26503;DHT22;14177;51.520;6.764;2022-07-23T01:40:48;17.60;91.70
26503;DHT22;14177;51.520;6.764;2022-07-23T01:43:25;17.60;91.80
26503;DHT22;14177;51.520;6.764;2022-07-23T01:45:53;17.60;91.90
26503;DHT22;14177;51.520;6.764;2022-07-23T01:48:22;17.60;91.80
26503;DHT22;14177;51.520;6.764;2022-07-23T01:51:17;17.60;91.80
26503;DHT22;14177;51.520;6.764;2022-07-23T01:53:53;17.50;91.90
26503;DHT22;14177;51.520;6.764;2022-07-23T01:56:20;17.50;91.90
26503;DHT22;14177;51.520;6.764;2022-07-23T01:58:49;17.50;91.90
26503;DHT22;14177;51.520;6.764;2022-07-23T02:01:16;17.50;91.90
26503;DHT22;14177;51.520;6.764;2022-07-23T02:03:45;17.40;92.20
26503;DHT22;14177;51.520;6.764;2022-07-23T02:06:12;17.40;91.90
26503;DHT22;14177;51.520;6.764;2022-07-23T02:08:40;17.40;91.90
26503;DHT22;14177;51.520;6.764;2022-07-23T02:11:07;17.30;91.90
26503;DHT22;14177;51.520;6.764;2022-07-23T02:13:35;17.30;92.00
26503;DHT22;14177;51.520;6.764;2022-07-23T02:16:04;17.30;92.00
26503;DHT22;14177;51.520;6.764;2022-07-23T02:18:32;17.20;92.00
26503;DHT22;14177;51.520;6.764;2022-07-23T02:20:59;17.20;91.90
26503;DHT22;14177;51.520;6.764;2022-07-23T02:23:27;17.10;91.90
26503;DHT22;14177;51.520;6.764;2022-07-23T02:25:54;17.00;92.00
26503;DHT22;14177;51.520;6.764;2022-07-23T02:28:22;17.00;92.10
26503;DHT22;14177;51.520;6.764;2022-07-23T02:30:51;17.00;92.10
26503;DHT22;14177;51.520;6.764;2022-07-23T02:33:24;17.00;92.30
26503;DHT22;14177;51.520;6.764;2022-07-23T02:35:51;16.90;92.30
26503;DHT22;14177;51.520;6.764;2022-07-23T02:38:22;16.90;92.30
26503;DHT22;14177;51.520;6.764;2022-07-23T02:40:53;16.90;92.30
26503;DHT22;14177;51.520;6.764;2022-07-23T02:43:21;16.90;92.40
26503;DHT22;14177;51.520;6.764;2022-07-23T02:45:48;16.90;92.50
26503;DHT22;14177;51.520;6.764;2022-07-23T02:48:16;16.80;92.40
26503;DHT22;14177;51.520;6.764;2022-07-23T02:50:46;16.90;92.50
26503;DHT22;14177;51.520;6.764;2022-07-23T02:53:17;16.90;92.50
26503;DHT22;14177;51.520;6.764;2022-07-23T02:55:45;16.80;92.40
26503;DHT22;14177;51.520;6.764;2022-07-23T02:58:12;16.80;92.40
26503;DHT22;14177;51.520;6.764;2022-07-23T03:00:40;16.80;92.40
26503;DHT22;14177;51.520;6.764;2022-07-23T03:03:10;16.70;92.40
26503;DHT22;14177;51.520;6.764;2022-07-23T03:05:37;16.70;92.40
26503;DHT22;14177;51.520;6.764;2022-07-23T03:08:04;16.70;92.40
26503;DHT22;14177;51.520;6.764;2022-07-23T03:10:34;16.60;92.30
26503;DHT22;14177;51.520;6.764;2022-07-23T03:13:02;16.60;92.30
26503;DHT22;14177;51.520;6.764;2022-07-23T03:15:29;16.50;92.30
26503;DHT22;14177;51.520;6.764;2022-07-23T03:17:59;16.50;92.30
26503;DHT22;14177;51.520;6.764;2022-07-23T03:20:28;16.50;92.40
26503;DHT22;14177;51.520;6.764;2022-07-23T03:22:56;16.40;92.40
26503;DHT22;14177;51.520;6.764;2022-07-23T03:25:23;16.40;92.40
26503;DHT22;14177;51.520;6.764;2022-07-23T03:27:51;16.40;92.50
26503;DHT22;14177;51.520;6.764;2022-07-23T03:30:18;16.30;92.60
26503;DHT22;14177;51.520;6.764;2022-07-23T03:32:48;16.30;92.60
26503;DHT22;14177;51.520;6.764;2022-07-23T03:35:16;16.30;92.70
26503;DHT22;14177;51.520;6.764;2022-07-23T03:37:56;16.30;92.60
26503;DHT22;14177;51.520;6.764;2022-07-23T03:40:25;16.20;92.70
26503;DHT22;14177;51.520;6.764;2022-07-23T03:42:55;16.20;92.60
26503;DHT22;14177;51.520;6.764;2022-07-23T03:45:22;16.20;92.60
26503;DHT22;14177;51.520;6.764;2022-07-23T03:47:52;16.20;92.70
26503;DHT22;14177;51.520;6.764;2022-07-23T03:50:23;16.10;92.60
26503;DHT22;14177;51.520;6.764;2022-07-23T03:52:50;16.10;92.60
26503;DHT22;14177;51.520;6.764;2022-07-23T03:55:18;16.10;92.60
26503;DHT22;14177;51.520;6.764;2022-07-23T03:57:46;16.00;92.50
26503;DHT22;14177;51.520;6.764;2022-07-23T04:00:15;16.00;92.50
26503;DHT22;14177;51.520;6.764;2022-07-23T04:02:45;16.00;92.50
26503;DHT22;14177;51.520;6.764;2022-07-23T04:05:16;16.00;92.50
26503;DHT22;14177;51.520;6.764;2022-07-23T04:07:46;16.00;92.50
26503;DHT22;14177;51.520;6.764;2022-07-23T04:10:13;16.00;92.60
26503;DHT22;14177;51.520;6.764;2022-07-23T04:12:42;16.00;92.80
26503;DHT22;14177;51.520;6.764;2022-07-23T04:15:10;15.90;92.50
26503;DHT22;14177;51.520;6.764;2022-07-23T04:17:37;15.90;92.50
26503;DHT22;14177;51.520;6.764;2022-07-23T04:20:05;15.90;92.50
26503;DHT22;14177;51.520;6.764;2022-07-23T04:22:39;15.90;92.60
26503;DHT22;14177;51.520;6.764;2022-07-23T04:25:06;15.90;92.70
26503;DHT22;14177;51.520;6.764;2022-07-23T04:27:34;15.90;92.60
26503;DHT22;14177;51.520;6.764;2022-07-23T04:30:01;15.90;92.60
26503;DHT22;14177;51.520;6.764;2022-07-23T04:32:29;15.90;92.60
26503;DHT22;14177;51.520;6.764;2022-07-23T04:34:56;16.00;92.60
26503;DHT22;14177;51.520;6.764;2022-07-23T04:37:23;16.00;92.70
26503;DHT22;14177;51.520;6.764;2022-07-23T04:39:51;16.00;92.70
26503;DHT22;14177;51.520;6.764;2022-07-23T04:42:18;16.00;92.70
26503;DHT22;14177;51.520;6.764;2022-07-23T04:44:45;16.00;92.60
26503;DHT22;14177;51.520;6.764;2022-07-23T04:47:12;16.00;92.70
26503;DHT22;14177;51.520;6.764;2022-07-23T04:49:43;16.00;92.70
26503;DHT22;14177;51.520;6.764;2022-07-23T04:52:10;16.10;92.70
26503;DHT22;14177;51.520;6.764;2022-07-23T04:54:38;16.10;92.70
26503;DHT22;14177;51.520;6.764;2022-07-23T04:57:07;16.10;92.70
26503;DHT22;14177;51.520;6.764;2022-07-23T04:59:35;16.20;92.80
26503;DHT22;14177;51.520;6.764;2022-07-23T05:02:04;16.20;92.60
26503;DHT22;14177;51.520;6.764;2022-07-23T05:04:31;16.20;92.50
26503;DHT22;14177;51.520;6.764;2022-07-23T05:06:59;16.20;92.50
26503;DHT22;14177;51.520;6.764;2022-07-23T05:09:26;16.30;92.50
26503;DHT22;14177;51.520;6.764;2022-07-23T05:11:54;16.30;92.40
26503;DHT22;14177;51.520;6.764;2022-07-23T05:14:29;16.40;92.40
26503;DHT22;14177;51.520;6.764;2022-07-23T05:16:56;16.40;92.30
26503;DHT22;14177;51.520;6.764;2022-07-23T05:19:25;16.50;92.30
26503;DHT22;14177;51.520;6.764;2022-07-23T05:21:52;16.50;92.40
26503;DHT22;14177;51.520;6.764;2022-07-23T05:24:20;16.50;92.30
26503;DHT22;14177;51.520;6.764;2022-07-23T05:26:49;16.60;92.20
26503;DHT22;14177;51.520;6.764;2022-07-23T05:29:16;16.60;92.20
26503;DHT22;14177;51.520;6.764;2022-07-23T05:31:44;16.60;92.10
26503;DHT22;14177;51.520;6.764;2022-07-23T05:34:12;16.60;92.10
26503;DHT22;14177;51.520;6.764;2022-07-23T05:36:44;16.70;92.20
26503;DHT22;14177;51.520;6.764;2022-07-23T05:39:12;16.80;92.20
26503;DHT22;14177;51.520;6.764;2022-07-23T05:41:43;16.80;92.00
26503;DHT22;14177;51.520;6.764;2022-07-23T05:44:10;16.90;92.10
26503;DHT22;14177;51.520;6.764;2022-07-23T05:46:40;16.90;92.10
26503;DHT22;14177;51.520;6.764;2022-07-23T05:49:11;17.00;92.00
26503;DHT22;14177;51.520;6.764;2022-07-23T05:51:53;17.00;92.00
26503;DHT22;14177;51.520;6.764;2022-07-23T05:54:31;17.10;92.10
26503;DHT22;14177;51.520;6.764;2022-07-23T05:57:03;17.10;92.20
26503;DHT22;14177;51.520;6.764;2022-07-23T05:59:31;17.20;92.10
26503;DHT22;14177;51.520;6.764;2022-07-23T06:01:59;17.30;91.90
26503;DHT22;14177;51.520;6.764;2022-07-23T06:04:26;17.30;91.80
26503;DHT22;14177;51.520;6.764;2022-07-23T06:07:11;17.40;91.80
26503;DHT22;14177;51.520;6.764;2022-07-23T06:09:39;17.50;91.50
26503;DHT22;14177;51.520;6.764;2022-07-23T06:12:07;17.50;91.60
26503;DHT22;14177;51.520;6.764;2022-07-23T06:14:34;17.60;91.50
26503;DHT22;14177;51.520;6.764;2022-07-23T06:17:01;17.70;91.10
26503;DHT22;14177;51.520;6.764;2022-07-23T06:19:28;17.70;91.00
26503;DHT22;14177;51.520;6.764;2022-07-23T06:21:55;17.70;90.70
26503;DHT22;14177;51.520;6.764;2022-07-23T06:24:22;17.80;90.80
26503;DHT22;14177;51.520;6.764;2022-07-23T06:26:50;17.80;90.70
26503;DHT22;14177;51.520;6.764;2022-07-23T06:29:17;18.00;90.80
26503;DHT22;14177;51.520;6.764;2022-07-23T06:31:44;18.10;90.70
26503;DHT22;14177;51.520;6.764;2022-07-23T06:34:13;18.20;90.10
26503;DHT22;14177;51.520;6.764;2022-07-23T06:36:40;18.20;89.90
26503;DHT22;14177;51.520;6.764;2022-07-23T06:39:08;18.30;90.20
26503;DHT22;14177;51.520;6.764;2022-07-23T06:41:36;18.40;89.70
26503;DHT22;14177;51.520;6.764;2022-07-23T06:44:03;18.50;89.70
26503;DHT22;14177;51.520;6.764;2022-07-23T06:46:33;18.60;89.00
26503;DHT22;14177;51.520;6.764;2022-07-23T06:49:00;18.60;88.80
26503;DHT22;14177;51.520;6.764;2022-07-23T06:51:28;18.70;88.80
26503;DHT22;14177;51.520;6.764;2022-07-23T06:53:55;18.80;87.60
26503;DHT22;14177;51.520;6.764;2022-07-23T06:56:23;18.80;87.30
26503;DHT22;14177;51.520;6.764;2022-07-23T06:58:50;18.90;87.60
26503;DHT22;14177;51.520;6.764;2022-07-23T07:01:17;19.00;86.90
26503;DHT22;14177;51.520;6.764;2022-07-23T07:03:45;19.10;86.30
26503;DHT22;14177;51.520;6.764;2022-07-23T07:06:12;19.20;86.20
26503;DHT22;14177;51.520;6.764;2022-07-23T07:08:39;19.20;85.10
26503;DHT22;14177;51.520;6.764;2022-07-23T07:11:06;19.30;85.10
26503;DHT22;14177;51.520;6.764;2022-07-23T07:13:35;19.40;83.40
26503;DHT22;14177;51.520;6.764;2022-07-23T07:16:03;19.40;84.10
26503;DHT22;14177;51.520;6.764;2022-07-23T07:18:30;19.50;83.10
26503;DHT22;14177;51.520;6.764;2022-07-23T07:20:57;19.60;83.50
26503;DHT22;14177;51.520;6.764;2022-07-23T07:23:24;19.70;83.60
26503;DHT22;14177;51.520;6.764;2022-07-23T07:25:51;19.80;82.90
26503;DHT22;14177;51.520;6.764;2022-07-23T07:28:19;19.90;81.30
26503;DHT22;14177;51.520;6.764;2022-07-23T07:30:45;20.00;80.70
26503;DHT22;14177;51.520;6.764;2022-07-23T07:33:12;20.00;79.50
26503;DHT22;14177;51.520;6.764;2022-07-23T07:35:39;20.10;79.50
26503;DHT22;14177;51.520;6.764;2022-07-23T07:38:06;20.30;79.20
26503;DHT22;14177;51.520;6.764;2022-07-23T07:40:34;20.40;78.80
26503;DHT22;14177;51.520;6.764;2022-07-23T07:43:04;20.50;78.00
26503;DHT22;14177;51.520;6.764;2022-07-23T07:45:31;20.60;78.20
26503;DHT22;14177;51.520;6.764;2022-07-23T07:47:59;20.70;77.50
26503;DHT22;14177;51.520;6.764;2022-07-23T07:50:26;20.80;77.00
26503;DHT22;14177;51.520;6.764;2022-07-23T07:52:53;20.90;76.50
26503;DHT22;14177;51.520;6.764;2022-07-23T07:55:20;20.90;76.30
26503;DHT22;14177;51.520;6.764;2022-07-23T07:57:47;21.00;75.90
26503;DHT22;14177;51.520;6.764;2022-07-23T08:00:15;21.10;75.40
26503;DHT22;14177;51.520;6.764;2022-07-23T08:02:51;21.20;74.50
26503;DHT22;14177;51.520;6.764;2022-07-23T08:05:25;21.40;74.80
26503;DHT22;14177;51.520;6.764;2022-07-23T08:07:54;21.50;74.00
26503;DHT22;14177;51.520;6.764;2022-07-23T08:10:23;21.60;73.20
26503;DHT22;14177;51.520;6.764;2022-07-23T08:12:53;21.70;73.00
26503;DHT22;14177;51.520;6.764;2022-07-23T08:15:25;21.70;73.20
26503;DHT22;14177;51.520;6.764;2022-07-23T08:17:53;21.80;72.60
26503;DHT22;14177;51.520;6.764;2022-07-23T08:20:22;21.90;71.60
26503;DHT22;14177;51.520;6.764;2022-07-23T08:25:29;22.30;71.10
26503;DHT22;14177;51.520;6.764;2022-07-23T08:28:02;22.40;71.10
26503;DHT22;14177;51.520;6.764;2022-07-23T08:30:31;22.50;69.10
26503;DHT22;14177;51.520;6.764;2022-07-23T08:33:04;22.60;70.10
26503;DHT22;14177;51.520;6.764;2022-07-23T08:35:57;22.70;69.20
26503;DHT22;14177;51.520;6.764;2022-07-23T08:38:25;22.80;68.00
26503;DHT22;14177;51.520;6.764;2022-07-23T08:40:54;22.80;67.50
26503;DHT22;14177;51.520;6.764;2022-07-23T08:43:26;22.70;67.00
26503;DHT22;14177;51.520;6.764;2022-07-23T08:45:56;22.80;68.50
26503;DHT22;14177;51.520;6.764;2022-07-23T08:48:29;22.90;68.50
26503;DHT22;14177;51.520;6.764;2022-07-23T08:51:00;23.20;69.10
26503;DHT22;14177;51.520;6.764;2022-07-23T08:53:30;23.50;67.90
26503;DHT22;14177;51.520;6.764;2022-07-23T08:56:00;23.90;66.80
26503;DHT22;14177;51.520;6.764;2022-07-23T08:58:30;24.10;65.00
26503;DHT22;14177;51.520;6.764;2022-07-23T09:00:59;24.30;64.00
26503;DHT22;14177;51.520;6.764;2022-07-23T09:03:32;24.30;64.10
26503;DHT22;14177;51.520;6.764;2022-07-23T09:06:02;24.50;63.30
26503;DHT22;14177;51.520;6.764;2022-07-23T09:08:38;24.50;62.80
26503;DHT22;14177;51.520;6.764;2022-07-23T09:11:08;24.60;63.40
26503;DHT22;14177;51.520;6.764;2022-07-23T09:13:51;24.60;62.10
26503;DHT22;14177;51.520;6.764;2022-07-23T09:16:25;24.80;61.50
26503;DHT22;14177;51.520;6.764;2022-07-23T09:18:56;25.00;61.70
26503;DHT22;14177;51.520;6.764;2022-07-23T09:21:26;25.20;60.00
26503;DHT22;14177;51.520;6.764;2022-07-23T09:24:06;25.40;59.30
26503;DHT22;14177;51.520;6.764;2022-07-23T09:26:46;25.50;59.00
26503;DHT22;14177;51.520;6.764;2022-07-23T09:29:23;25.80;58.90
26503;DHT22;14177;51.520;6.764;2022-07-23T09:32:00;26.00;58.40
26503;DHT22;14177;51.520;6.764;2022-07-23T09:34:33;26.20;58.80
26503;DHT22;14177;51.520;6.764;2022-07-23T09:37:15;26.30;57.10
26503;DHT22;14177;51.520;6.764;2022-07-23T09:39:47;26.50;57.00
26503;DHT22;14177;51.520;6.764;2022-07-23T09:42:20;26.10;55.30
26503;DHT22;14177;51.520;6.764;2022-07-23T09:44:52;25.70;56.50
26503;DHT22;14177;51.520;6.764;2022-07-23T09:47:23;25.80;58.30
26503;DHT22;14177;51.520;6.764;2022-07-23T09:50:03;26.00;56.30
26503;DHT22;14177;51.520;6.764;2022-07-23T09:52:35;26.00;55.60
26503;DHT22;14177;51.520;6.764;2022-07-23T09:55:09;26.00;55.00
26503;DHT22;14177;51.520;6.764;2022-07-23T09:57:36;26.20;56.90
26503;DHT22;14177;51.520;6.764;2022-07-23T10:00:08;26.50;55.50
26503;DHT22;14177;51.520;6.764;2022-07-23T10:02:38;26.90;55.60
26503;DHT22;14177;51.520;6.764;2022-07-23T10:05:30;27.20;54.20
26503;DHT22;14177;51.520;6.764;2022-07-23T10:07:58;27.40;52.20
26503;DHT22;14177;51.520;6.764;2022-07-23T10:10:46;27.40;52.00
26503;DHT22;14177;51.520;6.764;2022-07-23T10:13:32;27.10;51.00
26503;DHT22;14177;51.520;6.764;2022-07-23T10:16:15;27.00;53.30
26503;DHT22;14177;51.520;6.764;2022-07-23T10:18:53;27.30;53.70
26503;DHT22;14177;51.520;6.764;2022-07-23T10:21:46;27.60;51.90
26503;DHT22;14177;51.520;6.764;2022-07-23T10:24:28;27.60;49.50
26503;DHT22;14177;51.520;6.764;2022-07-23T10:30:19;27.90;51.80
26503;DHT22;14177;51.520;6.764;2022-07-23T10:36:03;28.40;50.50
26503;DHT22;14177;51.520;6.764;2022-07-23T10:39:20;28.30;46.40
26503;DHT22;14177;51.520;6.764;2022-07-23T10:41:51;27.90;48.40
26503;DHT22;14177;51.520;6.764;2022-07-23T10:44:21;28.00;49.80
26503;DHT22;14177;51.520;6.764;2022-07-23T10:47:03;28.30;49.40
26503;DHT22;14177;51.520;6.764;2022-07-23T10:50:24;28.70;48.20
26503;DHT22;14177;51.520;6.764;2022-07-23T10:53:08;28.90;48.10
26503;DHT22;14177;51.520;6.764;2022-07-23T10:58:11;28.70;47.90
26503;DHT22;14177;51.520;6.764;2022-07-23T11:00:46;28.60;48.70
26503;DHT22;14177;51.520;6.764;2022-07-23T11:03:32;28.80;48.80
26503;DHT22;14177;51.520;6.764;2022-07-23T11:06:05;29.10;48.20
26503;DHT22;14177;51.520;6.764;2022-07-23T11:08:33;29.30;46.90
26503;DHT22;14177;51.520;6.764;2022-07-23T11:13:41;29.50;46.20
26503;DHT22;14177;51.520;6.764;2022-07-23T11:16:14;29.40;45.00
26503;DHT22;14177;51.520;6.764;2022-07-23T11:26:55;29.20;47.50
26503;DHT22;14177;51.520;6.764;2022-07-23T11:32:01;29.50;44.00
26503;DHT22;14177;51.520;6.764;2022-07-23T11:34:44;29.60;47.30
26503;DHT22;14177;51.520;6.764;2022-07-23T11:37:31;29.70;46.30
26503;DHT22;14177;51.520;6.764;2022-07-23T11:40:08;29.90;44.30
26503;DHT22;14177;51.520;6.764;2022-07-23T11:42:59;29.90;45.30
26503;DHT22;14177;51.520;6.764;2022-07-23T11:45:36;30.10;46.20
26503;DHT22;14177;51.520;6.764;2022-07-23T11:48:07;30.20;43.20
26503;DHT22;14177;51.520;6.764;2022-07-23T11:50:36;30.10;43.70
26503;DHT22;14177;51.520;6.764;2022-07-23T11:53:03;29.70;44.50
26503;DHT22;14177;51.520;6.764;2022-07-23T11:55:30;29.70;45.50
26503;DHT22;14177;51.520;6.764;2022-07-23T11:57:58;29.50;45.30
26503;DHT22;14177;51.520;6.764;2022-07-23T12:00:29;29.80;46.40
26503;DHT22;14177;51.520;6.764;2022-07-23T12:03:01;29.90;44.40
26503;DHT22;14177;51.520;6.764;2022-07-23T12:05:32;30.10;43.10
26503;DHT22;14177;51.520;6.764;2022-07-23T12:08:03;29.80;44.00
26503;DHT22;14177;51.520;6.764;2022-07-23T12:10:36;30.00;45.70
26503;DHT22;14177;51.520;6.764;2022-07-23T12:13:15;30.30;45.00
26503;DHT22;14177;51.520;6.764;2022-07-23T12:15:48;30.70;44.10
26503;DHT22;14177;51.520;6.764;2022-07-23T12:18:21;30.90;42.70
26503;DHT22;14177;51.520;6.764;2022-07-23T12:20:52;31.10;41.90
26503;DHT22;14177;51.520;6.764;2022-07-23T12:23:24;30.90;41.20
26503;DHT22;14177;51.520;6.764;2022-07-23T12:25:52;30.60;42.90
26503;DHT22;14177;51.520;6.764;2022-07-23T12:28:27;30.40;42.60
26503;DHT22;14177;51.520;6.764;2022-07-23T12:30:57;30.40;44.50
26503;DHT22;14177;51.520;6.764;2022-07-23T12:33:28;30.70;42.60
26503;DHT22;14177;51.520;6.764;2022-07-23T12:36:00;30.80;43.10
26503;DHT22;14177;51.520;6.764;2022-07-23T12:38:41;31.00;42.20
26503;DHT22;14177;51.520;6.764;2022-07-23T12:41:13;30.70;41.50
26503;DHT22;14177;51.520;6.764;2022-07-23T12:43:42;30.60;43.50
26503;DHT22;14177;51.520;6.764;2022-07-23T12:46:20;30.60;41.40
26503;DHT22;14177;51.520;6.764;2022-07-23T12:51:25;30.00;42.40
26503;DHT22;14177;51.520;6.764;2022-07-23T12:54:07;29.80;42.80
26503;DHT22;14177;51.520;6.764;2022-07-23T12:56:40;29.60;42.80
26503;DHT22;14177;51.520;6.764;2022-07-23T12:59:15;29.50;43.30
26503;DHT22;14177;51.520;6.764;2022-07-23T13:01:54;29.80;43.70
26503;DHT22;14177;51.520;6.764;2022-07-23T13:04:25;30.00;43.10
26503;DHT22;14177;51.520;6.764;2022-07-23T13:06:57;29.70;42.40
26503;DHT22;14177;51.520;6.764;2022-07-23T13:09:32;29.70;43.20
26503;DHT22;14177;51.520;6.764;2022-07-23T13:12:08;29.70;42.20
26503;DHT22;14177;51.520;6.764;2022-07-23T13:14:37;29.70;42.10
26503;DHT22;14177;51.520;6.764;2022-07-23T13:17:05;29.60;43.00
26503;DHT22;14177;51.520;6.764;2022-07-23T13:19:33;29.80;43.40
26503;DHT22;14177;51.520;6.764;2022-07-23T13:22:01;30.20;42.80
26503;DHT22;14177;51.520;6.764;2022-07-23T13:24:35;30.50;44.50
26503;DHT22;14177;51.520;6.764;2022-07-23T13:27:05;30.90;42.70
26503;DHT22;14177;51.520;6.764;2022-07-23T13:29:38;30.80;42.40
26503;DHT22;14177;51.520;6.764;2022-07-23T13:32:06;31.10;42.00
26503;DHT22;14177;51.520;6.764;2022-07-23T13:34:39;31.30;39.60
26503;DHT22;14177;51.520;6.764;2022-07-23T13:37:08;31.20;41.10
26503;DHT22;14177;51.520;6.764;2022-07-23T13:39:36;31.30;40.40
26503;DHT22;14177;51.520;6.764;2022-07-23T13:42:05;31.40;39.80
26503;DHT22;14177;51.520;6.764;2022-07-23T13:44:39;31.50;39.80
26503;DHT22;14177;51.520;6.764;2022-07-23T13:47:14;31.60;39.00
26503;DHT22;14177;51.520;6.764;2022-07-23T13:49:44;31.40;39.20
26503;DHT22;14177;51.520;6.764;2022-07-23T13:52:14;31.30;40.50
26503;DHT22;14177;51.520;6.764;2022-07-23T13:54:43;31.30;40.40
26503;DHT22;14177;51.520;6.764;2022-07-23T13:57:10;31.30;40.90
26503;DHT22;14177;51.520;6.764;2022-07-23T13:59:38;31.40;40.20
26503;DHT22;14177;51.520;6.764;2022-07-23T14:02:06;31.40;38.70
26503;DHT22;14177;51.520;6.764;2022-07-23T14:04:51;31.00;39.40
26503;DHT22;14177;51.520;6.764;2022-07-23T14:07:19;30.90;40.00
26503;DHT22;14177;51.520;6.764;2022-07-23T14:09:50;30.70;41.60
26503;DHT22;14177;51.520;6.764;2022-07-23T14:12:27;30.50;40.90
26503;DHT22;14177;51.520;6.764;2022-07-23T14:15:04;30.60;41.50
26503;DHT22;14177;51.520;6.764;2022-07-23T14:17:43;30.90;42.10
26503;DHT22;14177;51.520;6.764;2022-07-23T14:20:16;31.30;41.90
26503;DHT22;14177;51.520;6.764;2022-07-23T14:22:45;31.60;41.80
26503;DHT22;14177;51.520;6.764;2022-07-23T14:25:20;31.70;41.50
26503;DHT22;14177;51.520;6.764;2022-07-23T14:27:54;31.60;41.10
26503;DHT22;14177;51.520;6.764;2022-07-23T14:30:23;31.70;41.40
26503;DHT22;14177;51.520;6.764;2022-07-23T14:33:00;31.60;40.00
26503;DHT22;14177;51.520;6.764;2022-07-23T14:35:29;31.40;40.50
26503;DHT22;14177;51.520;6.764;2022-07-23T14:38:03;31.30;40.60
26503;DHT22;14177;51.520;6.764;2022-07-23T14:40:37;31.20;40.20
26503;DHT22;14177;51.520;6.764;2022-07-23T14:43:11;31.40;39.90
26503;DHT22;14177;51.520;6.764;2022-07-23T14:45:48;31.40;39.60
26503;DHT22;14177;51.520;6.764;2022-07-23T14:48:17;31.50;40.70
26503;DHT22;14177;51.520;6.764;2022-07-23T14:50:50;31.50;40.10
26503;DHT22;14177;51.520;6.764;2022-07-23T14:53:22;31.50;39.70
26503;DHT22;14177;51.520;6.764;2022-07-23T14:55:53;31.60;40.40
26503;DHT22;14177;51.520;6.764;2022-07-23T14:58:24;31.60;40.30
26503;DHT22;14177;51.520;6.764;2022-07-23T15:00:53;31.50;39.30
26503;DHT22;14177;51.520;6.764;2022-07-23T15:03:25;31.20;39.50
26503;DHT22;14177;51.520;6.764;2022-07-23T15:06:10;31.00;40.60
26503;DHT22;14177;51.520;6.764;2022-07-23T15:08:45;31.00;41.20
26503;DHT22;14177;51.520;6.764;2022-07-23T15:11:16;31.20;41.20
26503;DHT22;14177;51.520;6.764;2022-07-23T15:13:53;31.40;40.80
26503;DHT22;14177;51.520;6.764;2022-07-23T15:16:25;31.60;40.80
26503;DHT22;14177;51.520;6.764;2022-07-23T15:19:00;31.70;40.20
26503;DHT22;14177;51.520;6.764;2022-07-23T15:21:33;31.70;40.70
26503;DHT22;14177;51.520;6.764;2022-07-23T15:24:07;31.60;40.10
26503;DHT22;14177;51.520;6.764;2022-07-23T15:26:41;31.30;40.00
26503;DHT22;14177;51.520;6.764;2022-07-23T15:29:17;31.10;40.40
26503;DHT22;14177;51.520;6.764;2022-07-23T15:31:52;30.80;40.50
26503;DHT22;14177;51.520;6.764;2022-07-23T15:34:26;30.60;40.60
26503;DHT22;14177;51.520;6.764;2022-07-23T15:37:02;30.40;41.30
26503;DHT22;14177;51.520;6.764;2022-07-23T15:39:43;30.20;41.60
26503;DHT22;14177;51.520;6.764;2022-07-23T15:42:20;30.30;41.70
26503;DHT22;14177;51.520;6.764;2022-07-23T15:45:10;30.30;41.70
26503;DHT22;14177;51.520;6.764;2022-07-23T15:47:54;30.20;41.50
26503;DHT22;14177;51.520;6.764;2022-07-23T15:50:27;30.20;42.30
26503;DHT22;14177;51.520;6.764;2022-07-23T15:52:57;30.30;42.20
26503;DHT22;14177;51.520;6.764;2022-07-23T15:55:28;30.00;41.70
26503;DHT22;14177;51.520;6.764;2022-07-23T15:57:57;30.00;42.30
26503;DHT22;14177;51.520;6.764;2022-07-23T16:00:24;30.00;42.20
26503;DHT22;14177;51.520;6.764;2022-07-23T16:02:57;30.10;42.50
26503;DHT22;14177;51.520;6.764;2022-07-23T16:05:35;30.20;42.30
26503;DHT22;14177;51.520;6.764;2022-07-23T16:08:04;30.30;42.20
26503;DHT22;14177;51.520;6.764;2022-07-23T16:10:33;30.30;42.60
26503;DHT22;14177;51.520;6.764;2022-07-23T16:13:03;30.30;41.70
26503;DHT22;14177;51.520;6.764;2022-07-23T16:15:40;30.10;41.60
26503;DHT22;14177;51.520;6.764;2022-07-23T16:18:09;30.00;42.60
26503;DHT22;14177;51.520;6.764;2022-07-23T16:20:44;30.00;42.60
26503;DHT22;14177;51.520;6.764;2022-07-23T16:23:12;30.00;42.80